Time;durP1;ratioP1;P1;durP2;ratioP2;P2;SDS_P1;SDS_P2;PMS_P1;PMS_P2;Temp;Humidity;BMP_temperature;BMP_pressure;BME280_temperature;BME280_humidity;BME280_pressure;Samples;Min_cycle;Max_cycle;Signal;HPM_P1;HPM_P2
2023/09/02 00:02:18;;;;;;;3.92;2.30;;;14.00;99.90;;;;;;5084286;28;20055;-76
2023/09/02 00:04:43;;;;;;;3.55;2.65;;;13.90;99.90;;;;;;5086748;28;20143;-76
2023/09/02 00:07:09;;;;;;;4.40;2.55;;;13.90;99.90;;;;;;5084846;28;20050;-77
2023/09/02 00:09:34;;;;;;;4.05;2.33;;;13.90;99.90;;;;;;5068161;28;20047;-76
2023/09/02 00:12:00;;;;;;;4.70;2.65;;;13.80;99.90;;;;;;5107555;28;20035;-76
2023/09/02 00:14:25;;;;;;;4.25;2.30;;;13.90;99.90;;;;;;5086406;28;20032;-76
2023/09/02 00:16:51;;;;;;;5.00;2.45;;;13.80;99.90;;;;;;5105345;28;20036;-76
2023/09/02 00:19:16;;;;;;;4.53;2.67;;;13.80;99.90;;;;;;5104149;28;20062;-76
2023/09/02 00:21:42;;;;;;;4.47;2.70;;;13.80;99.90;;;;;;5100847;28;20264;-76
2023/09/02 00:24:08;;;;;;;4.55;2.47;;;13.80;99.90;;;;;;5069649;28;20040;-76
2023/09/02 00:26:34;;;;;;;4.88;2.33;;;13.80;99.90;;;;;;5104185;28;20040;-76
2023/09/02 00:29:00;;;;;;;3.53;2.25;;;13.80;99.90;;;;;;5083607;28;20027;-77
2023/09/02 00:31:27;;;;;;;5.57;2.45;;;13.80;99.90;;;;;;5080307;28;20114;-76
2023/09/02 00:33:53;;;;;;;3.60;2.20;;;13.70;99.90;;;;;;5089095;28;20063;-76
2023/09/02 00:36:19;;;;;;;3.88;2.08;;;13.70;99.90;;;;;;5107997;28;20059;-76
2023/09/02 00:38:44;;;;;;;3.92;2.20;;;13.70;99.90;;;;;;5089689;28;20047;-76
2023/09/02 00:41:16;;;;;;;6.50;2.22;;;13.70;99.90;;;;;;5106122;28;20042;-76
2023/09/02 00:43:42;;;;;;;3.65;2.25;;;13.70;99.90;;;;;;5105206;28;20069;-76
2023/09/02 00:46:09;;;;;;;4.45;2.20;;;13.70;99.90;;;;;;5094908;28;20043;-76
2023/09/02 00:48:35;;;;;;;3.92;2.20;;;13.60;99.90;;;;;;5078753;28;20106;-76
2023/09/02 00:51:01;;;;;;;3.65;2.25;;;13.60;99.90;;;;;;5122013;27;20116;-76
2023/09/02 00:53:27;;;;;;;6.15;1.98;;;13.60;99.90;;;;;;5085206;28;20076;-76
2023/09/02 00:55:52;;;;;;;4.25;2.22;;;13.60;99.90;;;;;;5089320;28;20043;-76
2023/09/02 00:58:19;;;;;;;4.45;2.42;;;13.60;99.90;;;;;;5107399;28;20094;-76
2023/09/02 01:00:46;;;;;;;3.97;2.58;;;13.60;99.90;;;;;;5086267;28;20431;-77
2023/09/02 01:03:12;;;;;;;5.72;2.70;;;13.60;99.90;;;;;;5084635;28;20050;-76
2023/09/02 01:05:38;;;;;;;3.47;2.15;;;13.60;99.90;;;;;;5103966;28;21942;-76
2023/09/02 01:08:05;;;;;;;3.38;2.33;;;13.60;99.90;;;;;;5105679;28;20043;-76
2023/09/02 01:10:36;;;;;;;5.40;2.72;;;13.60;99.90;;;;;;5106896;28;20720;-76
2023/09/02 01:13:03;;;;;;;4.82;2.78;;;13.60;99.90;;;;;;5089200;28;20035;-76
2023/09/02 01:15:32;;;;;;;5.82;3.30;;;13.60;99.90;;;;;;5108916;28;20035;-76
2023/09/02 01:17:57;;;;;;;6.65;2.58;;;13.60;99.90;;;;;;5107414;28;20043;-76
2023/09/02 01:20:27;;;;;;;7.25;2.13;;;13.60;99.90;;;;;;5106622;27;20055;-76
2023/09/02 01:23:13;;;;;;;4.00;2.20;;;13.60;99.90;;;;;;5122435;27;20047;-76
2023/09/02 01:25:54;;;;;;;3.42;2.15;;;13.60;99.90;;;;;;5071679;28;20416;-76
2023/09/02 01:28:28;;;;;;;3.53;2.15;;;13.60;99.90;;;;;;5061785;28;20495;-76
2023/09/02 01:30:55;;;;;;;3.53;2.20;;;13.60;99.90;;;;;;5087491;28;20183;-76
2023/09/02 01:33:25;;;;;;;4.60;2.70;;;13.60;99.90;;;;;;5087827;28;20090;-76
2023/09/02 01:35:52;;;;;;;3.78;2.42;;;13.60;99.90;;;;;;5077167;28;20039;-76
2023/09/02 01:38:21;;;;;;;7.38;2.80;;;13.50;99.90;;;;;;5088491;28;20511;-76
2023/09/02 01:40:49;;;;;;;5.10;2.70;;;13.50;99.90;;;;;;5088469;28;20036;-76
2023/09/02 01:43:20;;;;;;;4.40;2.60;;;13.50;99.90;;;;;;5088373;28;20036;-76
2023/09/02 01:45:46;;;;;;;4.95;2.83;;;13.50;99.90;;;;;;5107373;28;20032;-76
2023/09/02 01:48:13;;;;;;;4.35;2.42;;;13.50;99.90;;;;;;5087093;28;20720;-77
2023/09/02 01:50:40;;;;;;;6.72;2.92;;;13.50;99.90;;;;;;5068518;28;20061;-76
2023/09/02 01:53:08;;;;;;;5.05;2.80;;;13.40;99.90;;;;;;5087922;28;20052;-76
2023/09/02 01:55:35;;;;;;;5.88;2.97;;;13.40;99.90;;;;;;5088476;28;20047;-76
2023/09/02 01:58:00;;;;;;;3.28;2.17;;;13.40;99.90;;;;;;5088241;28;20509;-76
2023/09/02 02:00:26;;;;;;;6.20;2.50;;;13.40;99.90;;;;;;5086680;28;20134;-76
2023/09/02 02:02:55;;;;;;;4.63;2.65;;;13.40;99.90;;;;;;5087400;28;20076;-77
2023/09/02 02:05:26;;;;;;;4.10;2.50;;;13.40;99.90;;;;;;5082584;28;20491;-76
2023/09/02 02:07:58;;;;;;;6.78;3.45;;;13.40;99.90;;;;;;5086439;28;20077;-76
2023/09/02 02:10:26;;;;;;;4.40;2.88;;;13.40;99.90;;;;;;5104330;27;20035;-76
2023/09/02 02:12:52;;;;;;;5.10;2.55;;;13.30;99.90;;;;;;5088001;28;20481;-77
2023/09/02 02:15:17;;;;;;;6.25;3.63;;;13.40;99.90;;;;;;5088788;28;20047;-76
2023/09/02 02:17:43;;;;;;;4.97;2.95;;;13.30;99.90;;;;;;5107749;28;20047;-76
2023/09/02 02:20:09;;;;;;;5.28;2.90;;;13.30;99.90;;;;;;5087596;28;20054;-76
2023/09/02 02:22:35;;;;;;;3.72;2.50;;;13.30;99.90;;;;;;5086667;28;20067;-76
2023/09/02 02:25:01;;;;;;;4.32;2.47;;;13.30;99.90;;;;;;5068239;28;20078;-76
2023/09/02 02:27:27;;;;;;;3.95;2.38;;;13.30;99.90;;;;;;5103539;28;20055;-76
2023/09/02 02:29:52;;;;;;;4.47;2.35;;;13.30;99.90;;;;;;5102509;28;20036;-76
2023/09/02 02:32:18;;;;;;;4.50;2.35;;;13.20;99.90;;;;;;5085283;28;20464;-76
2023/09/02 02:34:44;;;;;;;3.63;2.60;;;13.20;99.90;;;;;;5086873;28;20640;-77
2023/09/02 02:37:09;;;;;;;4.43;2.63;;;13.20;99.90;;;;;;5104226;28;20473;-76
2023/09/02 02:39:35;;;;;;;4.85;2.60;;;13.20;99.90;;;;;;5104865;28;20099;-76
2023/09/02 02:42:01;;;;;;;5.15;2.70;;;13.20;99.90;;;;;;5105098;27;20042;-76
2023/09/02 02:44:26;;;;;;;3.78;2.47;;;13.20;99.90;;;;;;5071325;28;20489;-77
2023/09/02 02:46:52;;;;;;;5.32;2.65;;;13.20;99.90;;;;;;5086108;28;20032;-76
2023/09/02 02:49:17;;;;;;;4.38;2.70;;;13.20;99.90;;;;;;5079936;28;20385;-77
2023/09/02 02:51:43;;;;;;;3.60;2.20;;;13.20;99.90;;;;;;5105432;28;20036;-77
2023/09/02 02:54:08;;;;;;;4.10;2.55;;;13.20;99.90;;;;;;5106647;28;20076;-76
2023/09/02 02:56:34;;;;;;;3.85;2.58;;;13.30;99.90;;;;;;5084625;28;20040;-76
2023/09/02 02:58:59;;;;;;;3.70;2.17;;;13.30;99.90;;;;;;5119158;27;20035;-76
2023/09/02 03:01:25;;;;;;;2.90;1.80;;;13.30;99.90;;;;;;5104650;28;20042;-77
2023/09/02 03:03:51;;;;;;;3.92;2.40;;;13.30;99.90;;;;;;5087643;28;20036;-77
2023/09/02 03:06:18;;;;;;;3.83;2.20;;;13.20;99.90;;;;;;5085488;28;20112;-77
2023/09/02 03:08:44;;;;;;;3.17;2.03;;;13.20;99.90;;;;;;5086056;28;20031;-77
2023/09/02 03:11:10;;;;;;;4.03;2.42;;;13.20;99.90;;;;;;5085640;28;20396;-76
2023/09/02 03:13:37;;;;;;;6.50;2.42;;;13.20;99.90;;;;;;5106123;28;20488;-78
2023/09/02 03:16:03;;;;;;;3.50;2.10;;;13.20;99.90;;;;;;5108941;27;20040;-76
2023/09/02 03:18:29;;;;;;;3.33;2.10;;;13.20;99.90;;;;;;5069441;28;20821;-76
2023/09/02 03:21:00;;;;;;;3.60;2.22;;;13.20;99.90;;;;;;5102685;28;20560;-77
2023/09/02 03:23:27;;;;;;;3.90;2.33;;;13.20;99.90;;;;;;5070129;28;20062;-76
2023/09/02 03:25:52;;;;;;;5.15;2.30;;;13.20;99.90;;;;;;5087580;28;20044;-76
2023/09/02 03:28:18;;;;;;;4.55;2.45;;;13.20;99.90;;;;;;5086562;28;20038;-77
2023/09/02 03:30:43;;;;;;;6.40;2.47;;;13.20;99.90;;;;;;5090764;28;20044;-77
2023/09/02 03:33:09;;;;;;;3.90;2.38;;;13.20;99.90;;;;;;5092150;28;20028;-77
2023/09/02 03:35:38;;;;;;;5.80;3.25;;;13.10;99.90;;;;;;5086838;28;20616;-77
2023/09/02 03:38:04;;;;;;;4.72;2.30;;;13.20;99.90;;;;;;5084219;28;20047;-77
2023/09/02 03:40:30;;;;;;;5.20;2.55;;;13.20;99.90;;;;;;5085610;28;20034;-76
2023/09/02 03:42:56;;;;;;;5.60;2.53;;;13.20;99.90;;;;;;5081229;28;20401;-77
2023/09/02 03:45:21;;;;;;;3.97;2.33;;;13.20;99.90;;;;;;5104063;28;20119;-77
2023/09/02 03:47:47;;;;;;;4.53;2.63;;;13.20;99.90;;;;;;5100554;28;20071;-77
2023/09/02 03:50:12;;;;;;;4.82;2.65;;;13.20;99.90;;;;;;5085125;28;20063;-77
2023/09/02 03:52:38;;;;;;;7.35;3.08;;;13.30;99.90;;;;;;5069392;28;20027;-76
2023/09/02 03:55:04;;;;;;;4.68;2.60;;;13.20;99.90;;;;;;5087695;28;20027;-77
2023/09/02 03:57:31;;;;;;;5.28;2.95;;;13.20;99.90;;;;;;5088139;28;20442;-77
2023/09/02 03:59:56;;;;;;;6.38;2.90;;;13.20;99.90;;;;;;5065437;28;20088;-77
2023/09/02 04:02:22;;;;;;;4.85;2.83;;;13.20;99.90;;;;;;5067208;28;20043;-76
2023/09/02 04:04:47;;;;;;;4.65;2.33;;;13.20;99.90;;;;;;5082866;28;20051;-77
2023/09/02 04:07:13;;;;;;;4.45;2.50;;;13.20;99.90;;;;;;5104123;28;20032;-77
2023/09/02 04:09:39;;;;;;;3.95;2.45;;;13.20;99.90;;;;;;5085529;28;20535;-77
2023/09/02 04:12:04;;;;;;;4.25;2.50;;;13.20;99.90;;;;;;5103349;28;20047;-77
2023/09/02 04:14:30;;;;;;;3.85;2.70;;;13.20;99.90;;;;;;5101762;28;20034;-77
2023/09/02 04:16:58;;;;;;;10.27;3.88;;;13.20;99.90;;;;;;5067507;28;20043;-77
2023/09/02 04:19:24;;;;;;;5.07;2.95;;;13.10;99.90;;;;;;5069917;28;20585;-76
2023/09/02 04:21:51;;;;;;;6.57;2.88;;;13.10;99.90;;;;;;5085231;28;20122;-77
2023/09/02 04:24:17;;;;;;;6.00;3.33;;;13.10;99.90;;;;;;5083845;28;20051;-77
2023/09/02 04:26:42;;;;;;;9.45;3.63;;;13.20;99.90;;;;;;5084271;28;20047;-77
2023/09/02 04:29:08;;;;;;;5.38;3.10;;;13.20;99.90;;;;;;5102237;28;20028;-77
2023/09/02 04:31:34;;;;;;;6.55;3.53;;;13.20;99.90;;;;;;5084345;28;20040;-77
2023/09/02 04:33:59;;;;;;;5.70;3.13;;;13.10;99.90;;;;;;5085874;28;20385;-77
2023/09/02 04:36:25;;;;;;;8.63;3.28;;;13.10;99.90;;;;;;5068845;28;20035;-77
2023/09/02 04:38:51;;;;;;;5.88;3.10;;;13.10;99.90;;;;;;5103077;28;20047;-77
2023/09/02 04:41:17;;;;;;;5.53;2.78;;;13.10;99.90;;;;;;5069170;28;20035;-77
2023/09/02 04:43:43;;;;;;;5.22;2.72;;;13.10;99.90;;;;;;5085752;28;20119;-77
2023/09/02 04:46:08;;;;;;;5.40;2.47;;;13.10;99.90;;;;;;5089959;28;20085;-77
2023/09/02 04:48:34;;;;;;;5.60;3.05;;;13.10;99.90;;;;;;5073056;28;20096;-77
2023/09/02 04:51:01;;;;;;;7.50;2.80;;;13.20;99.90;;;;;;5083506;28;20024;-77
2023/09/02 04:53:27;;;;;;;4.32;2.72;;;13.20;99.90;;;;;;5079520;28;20044;-77
2023/09/02 04:55:53;;;;;;;5.57;3.17;;;13.20;99.90;;;;;;5069621;28;20035;-77
2023/09/02 04:58:20;;;;;;;5.72;2.65;;;13.20;99.90;;;;;;5070064;28;20047;-77
2023/09/02 05:00:45;;;;;;;5.43;3.30;;;13.20;99.90;;;;;;5103320;28;20408;-77
2023/09/02 05:03:11;;;;;;;5.43;2.97;;;13.20;99.90;;;;;;5086008;28;20027;-77
2023/09/02 05:05:37;;;;;;;5.40;2.90;;;13.20;99.90;;;;;;5083958;28;20502;-77
2023/09/02 05:08:03;;;;;;;6.50;2.88;;;13.20;99.90;;;;;;5103945;28;20042;-77
2023/09/02 05:10:29;;;;;;;4.55;2.45;;;13.20;99.90;;;;;;5068482;28;20067;-77
2023/09/02 05:12:54;;;;;;;5.32;3.25;;;13.20;99.90;;;;;;5082828;28;20067;-77
2023/09/02 05:15:20;;;;;;;6.88;2.97;;;13.20;99.90;;;;;;5083186;28;20280;-77
2023/09/02 05:17:46;;;;;;;6.70;3.67;;;13.30;99.90;;;;;;5084097;28;20118;-77
2023/09/02 05:20:11;;;;;;;5.78;3.30;;;13.20;99.90;;;;;;5103364;28;20122;-77
2023/09/02 05:22:37;;;;;;;5.72;3.13;;;13.20;99.90;;;;;;5089447;28;20051;-77
2023/09/02 05:25:03;;;;;;;7.78;3.80;;;13.30;99.90;;;;;;5088222;28;20035;-77
2023/09/02 05:27:29;;;;;;;8.15;3.33;;;13.30;99.90;;;;;;5106766;28;20036;-77
2023/09/02 05:29:55;;;;;;;6.53;3.53;;;13.30;99.90;;;;;;5106439;28;20042;-77
2023/09/02 05:32:21;;;;;;;7.53;3.47;;;13.30;99.90;;;;;;5088664;27;20042;-77
2023/09/02 05:34:46;;;;;;;8.20;3.75;;;13.30;99.90;;;;;;5088021;28;20031;-77
2023/09/02 05:37:12;;;;;;;6.38;3.40;;;13.40;99.90;;;;;;5071871;28;20467;-77
2023/09/02 05:39:38;;;;;;;8.20;3.70;;;13.40;99.90;;;;;;5108094;28;20043;-77
2023/09/02 05:42:04;;;;;;;7.38;3.50;;;13.40;99.90;;;;;;5110548;28;20440;-77
2023/09/02 05:44:31;;;;;;;8.38;3.83;;;13.40;99.90;;;;;;5090863;28;20039;-77
2023/09/02 05:46:57;;;;;;;7.07;3.63;;;13.50;99.90;;;;;;5086852;28;20047;-77
2023/09/02 05:49:22;;;;;;;8.48;3.88;;;13.50;99.90;;;;;;5072664;28;20036;-77
2023/09/02 05:51:48;;;;;;;6.05;3.63;;;13.50;99.90;;;;;;5107414;28;20066;-77
2023/09/02 05:54:13;;;;;;;8.18;4.10;;;13.50;99.90;;;;;;5087649;28;20429;-77
2023/09/02 05:56:39;;;;;;;9.80;4.38;;;13.50;99.90;;;;;;5106409;28;20039;-77
2023/09/02 05:59:06;;;;;;;10.48;4.10;;;13.50;99.90;;;;;;5085219;28;20055;-77
2023/09/02 06:01:31;;;;;;;8.52;4.07;;;13.60;99.90;;;;;;5087859;28;20039;-77
2023/09/02 06:03:57;;;;;;;15.60;4.55;;;13.60;99.90;;;;;;5086709;28;20592;-77
2023/09/02 06:06:23;;;;;;;8.05;4.65;;;13.60;99.90;;;;;;5085970;28;20035;-77
2023/09/02 06:08:49;;;;;;;10.00;4.93;;;13.60;99.90;;;;;;5107156;28;20083;-77
2023/09/02 06:11:14;;;;;;;8.98;4.38;;;13.70;99.90;;;;;;5107649;28;20118;-77
2023/09/02 06:13:40;;;;;;;8.98;4.60;;;13.60;99.90;;;;;;5104768;28;20044;-77
2023/09/02 06:16:07;;;;;;;8.98;4.82;;;13.60;99.90;;;;;;5108405;28;20031;-77
2023/09/02 06:18:34;;;;;;;9.85;4.75;;;13.60;99.90;;;;;;5085822;28;20446;-77
2023/09/02 06:21:07;;;;;;;14.15;5.50;;;13.60;99.90;;;;;;5086485;28;20138;-77
2023/09/02 06:23:32;;;;;;;10.88;6.05;;;13.70;99.90;;;;;;5087322;28;20031;-77
2023/09/02 06:25:59;;;;;;;12.63;5.90;;;13.70;99.90;;;;;;5081332;28;20035;-76
2023/09/02 06:28:25;;;;;;;13.25;5.40;;;13.70;99.90;;;;;;5087601;28;20039;-76
2023/09/02 06:30:51;;;;;;;16.10;5.68;;;13.80;99.90;;;;;;5087006;28;20550;-77
2023/09/02 06:33:20;;;;;;;11.85;6.20;;;13.80;99.90;;;;;;5070852;28;20031;-77
2023/09/02 06:35:45;;;;;;;14.55;6.75;;;13.80;99.90;;;;;;5086674;28;20044;-77
2023/09/02 06:38:11;;;;;;;12.77;6.28;;;13.80;99.90;;;;;;5070432;28;20409;-77
2023/09/02 06:40:36;;;;;;;15.23;6.38;;;13.80;99.90;;;;;;5087846;28;20127;-77
2023/09/02 06:43:02;;;;;;;12.45;6.55;;;13.90;99.90;;;;;;5083732;28;20075;-78
2023/09/02 06:45:27;;;;;;;13.48;6.07;;;13.90;99.90;;;;;;5100668;27;20078;-77
2023/09/02 06:47:53;;;;;;;10.73;5.68;;;14.00;99.90;;;;;;5080931;28;20114;-77
2023/09/02 06:50:19;;;;;;;12.68;5.93;;;14.00;99.90;;;;;;5081080;28;20101;-77
2023/09/02 06:52:44;;;;;;;11.20;5.55;;;14.00;99.90;;;;;;5070036;28;20041;-78
2023/09/02 06:55:10;;;;;;;14.63;6.72;;;14.00;99.90;;;;;;5103476;28;20056;-77
2023/09/02 06:57:42;;;;;;;13.48;6.05;;;14.10;99.90;;;;;;5085830;28;20138;-77
2023/09/02 07:00:09;;;;;;;12.10;5.65;;;14.00;99.90;;;;;;5067485;28;20044;-77
2023/09/02 07:02:34;;;;;;;10.65;5.65;;;14.10;99.90;;;;;;5070749;28;20493;-77
2023/09/02 07:05:00;;;;;;;12.00;6.45;;;14.10;99.90;;;;;;5086795;28;20120;-78
2023/09/02 07:07:26;;;;;;;11.35;5.90;;;14.20;99.90;;;;;;5086623;28;20408;-78
2023/09/02 07:09:52;;;;;;;14.63;6.45;;;14.20;99.90;;;;;;5105990;28;20027;-78
2023/09/02 07:12:17;;;;;;;13.32;6.47;;;14.30;99.90;;;;;;5084265;28;20071;-77
2023/09/02 07:14:43;;;;;;;13.77;6.18;;;14.30;99.90;;;;;;5084595;28;20096;-78
2023/09/02 07:17:08;;;;;;;12.32;6.38;;;14.40;99.90;;;;;;5084931;28;20071;-77
2023/09/02 07:19:34;;;;;;;15.50;7.10;;;14.50;99.90;;;;;;5108515;27;20047;-77
2023/09/02 07:21:59;;;;;;;15.30;7.57;;;14.50;99.90;;;;;;5079186;28;20054;-77
2023/09/02 07:24:25;;;;;;;13.55;6.40;;;14.60;99.90;;;;;;5083015;28;20032;-78
2023/09/02 07:26:51;;;;;;;18.08;8.10;;;14.50;99.90;;;;;;5089213;28;20652;-76
2023/09/02 07:29:18;;;;;;;16.73;7.35;;;14.70;99.90;;;;;;5087273;28;20036;-78
2023/09/02 07:31:44;;;;;;;18.02;7.93;;;14.70;99.90;;;;;;5067530;28;20066;-78
2023/09/02 07:34:10;;;;;;;16.52;8.05;;;14.80;99.90;;;;;;5081123;27;20275;-77
2023/09/02 07:36:36;;;;;;;18.30;7.45;;;14.90;99.90;;;;;;5068399;28;20084;-77
2023/09/02 07:39:01;;;;;;;23.55;9.27;;;14.90;99.90;;;;;;5068609;28;20048;-77
2023/09/02 07:41:27;;;;;;;19.15;8.40;;;15.00;99.90;;;;;;5081814;28;20040;-77
2023/09/02 07:43:55;;;;;;;19.45;8.57;;;14.90;99.90;;;;;;5082728;28;20043;-77
2023/09/02 07:46:21;;;;;;;17.13;8.13;;;15.00;99.90;;;;;;5103228;27;20036;-77
2023/09/02 07:48:49;;;;;;;19.42;8.38;;;15.00;99.90;;;;;;5083762;28;20326;-78
2023/09/02 07:51:16;;;;;;;19.52;8.75;;;15.00;99.90;;;;;;5102484;27;20088;-77
2023/09/02 07:53:42;;;;;;;16.88;8.00;;;15.10;99.90;;;;;;5068119;28;20115;-77
2023/09/02 07:56:07;;;;;;;16.60;7.60;;;15.00;99.90;;;;;;5082652;28;20503;-77
2023/09/02 07:58:33;;;;;;;16.48;8.02;;;15.10;99.90;;;;;;5069049;28;20143;-78
2023/09/02 08:00:58;;;;;;;21.55;8.77;;;15.20;99.90;;;;;;5079492;28;20298;-77
2023/09/02 08:03:24;;;;;;;20.17;9.05;;;15.30;99.90;;;;;;5084948;28;20246;-78
2023/09/02 08:05:50;;;;;;;16.40;7.20;;;15.30;99.90;;;;;;5084732;28;20084;-77
2023/09/02 08:08:15;;;;;;;18.02;7.90;;;15.40;99.90;;;;;;5084369;28;20509;-77
2023/09/02 08:10:41;;;;;;;17.35;6.90;;;15.40;99.90;;;;;;5068992;28;20046;-77
2023/09/02 08:13:07;;;;;;;19.30;8.23;;;15.40;99.90;;;;;;5089941;28;20023;-77
2023/09/02 08:15:33;;;;;;;18.25;7.25;;;15.50;99.90;;;;;;5082373;28;20489;-77
2023/09/02 08:17:59;;;;;;;15.98;7.25;;;15.50;99.90;;;;;;5063894;28;20043;-77
2023/09/02 08:20:25;;;;;;;13.63;6.85;;;15.60;99.90;;;;;;5068659;28;20112;-78
2023/09/02 08:22:51;;;;;;;15.25;7.75;;;15.60;99.90;;;;;;5099436;28;20481;-77
2023/09/02 08:25:16;;;;;;;16.40;7.18;;;15.60;99.90;;;;;;5083323;28;20328;-77
2023/09/02 08:27:46;;;;;;;15.32;6.55;;;15.60;99.90;;;;;;5065416;28;20380;-76
2023/09/02 08:30:12;;;;;;;18.20;7.70;;;15.70;99.90;;;;;;5097935;28;20265;-78
2023/09/02 08:32:38;;;;;;;15.90;8.15;;;15.70;99.90;;;;;;5078538;28;20039;-78
2023/09/02 08:35:04;;;;;;;16.38;8.10;;;15.80;99.90;;;;;;5078371;28;20488;-77
2023/09/02 08:37:31;;;;;;;13.93;7.55;;;15.80;99.90;;;;;;5117053;27;20040;-77
2023/09/02 08:39:57;;;;;;;17.45;7.40;;;15.90;99.90;;;;;;5100545;28;20043;-77
2023/09/02 08:42:25;;;;;;;19.70;7.60;;;15.90;99.90;;;;;;5082115;28;20039;-77
2023/09/02 08:44:51;;;;;;;17.08;7.15;;;16.00;99.90;;;;;;5099790;28;20039;-77
2023/09/02 08:47:17;;;;;;;17.15;6.88;;;16.00;99.90;;;;;;5083957;28;20067;-78
2023/09/02 08:49:43;;;;;;;16.33;7.13;;;16.00;99.90;;;;;;5101649;28;20096;-77
2023/09/02 08:52:09;;;;;;;14.90;6.97;;;16.00;99.90;;;;;;5080953;28;20481;-77
2023/09/02 08:54:37;;;;;;;21.83;7.65;;;16.10;99.90;;;;;;5084335;27;20040;-78
2023/09/02 08:57:04;;;;;;;17.65;8.05;;;16.00;99.90;;;;;;5105130;27;20077;-77
2023/09/02 08:59:30;;;;;;;17.55;7.47;;;16.00;99.90;;;;;;5103363;28;20035;-77
2023/09/02 09:01:56;;;;;;;18.70;7.35;;;16.10;99.90;;;;;;5100859;28;20484;-77
2023/09/02 09:04:22;;;;;;;13.02;7.28;;;16.10;99.90;;;;;;5125637;27;20051;-77
2023/09/02 09:06:49;;;;;;;17.25;7.63;;;16.10;99.90;;;;;;5124398;27;20040;-78
2023/09/02 09:09:18;;;;;;;15.40;7.25;;;16.10;99.90;;;;;;5110736;28;20043;-78
2023/09/02 09:11:44;;;;;;;19.77;7.90;;;16.20;99.90;;;;;;5093203;28;20047;-77
2023/09/02 09:14:22;;;;;;;16.33;8.02;;;16.20;99.90;;;;;;5105209;27;20027;-77
2023/09/02 09:16:51;;;;;;;15.88;7.45;;;16.20;99.90;;;;;;5103091;28;20027;-77
2023/09/02 09:19:17;;;;;;;18.08;8.13;;;16.30;99.90;;;;;;5090659;28;20145;-77
2023/09/02 09:21:44;;;;;;;19.02;8.35;;;16.40;99.90;;;;;;5089221;28;20036;-78
2023/09/02 09:24:12;;;;;;;18.10;8.10;;;16.30;99.90;;;;;;5105178;28;20031;-78
2023/09/02 09:26:41;;;;;;;17.33;7.85;;;16.30;99.90;;;;;;5103855;28;20127;-77
2023/09/02 09:29:12;;;;;;;21.75;8.05;;;16.30;99.90;;;;;;5052848;28;22007;-77
2023/09/02 09:31:38;;;;;;;14.65;7.07;;;16.30;99.90;;;;;;5085327;28;20048;-77
2023/09/02 09:34:04;;;;;;;17.50;7.88;;;16.40;99.90;;;;;;5083674;28;20548;-78
2023/09/02 09:36:31;;;;;;;19.40;8.30;;;16.40;99.90;;;;;;5101715;28;20058;-77
2023/09/02 09:39:01;;;;;;;18.52;7.75;;;16.50;99.90;;;;;;5085483;28;20040;-77
2023/09/02 09:41:27;;;;;;;16.45;7.53;;;16.50;99.90;;;;;;5101176;28;20042;-77
2023/09/02 09:44:16;;;;;;;15.00;7.18;;;16.60;99.90;;;;;;5102224;27;20063;-79
2023/09/02 09:46:51;;;;;;;14.55;7.03;;;16.60;99.90;;;;;;5102758;28;20070;-79
2023/09/02 09:49:27;;;;;;;12.90;6.65;;;16.70;99.90;;;;;;5064404;28;20051;-79
2023/09/02 09:51:59;;;;;;;18.85;6.85;;;16.80;99.90;;;;;;5083112;28;20102;-79
2023/09/02 09:54:48;;;;;;;13.15;6.72;;;16.90;99.90;;;;;;5063525;28;20040;-79
2023/09/02 09:57:29;;;;;;;23.05;8.25;;;17.00;99.90;;;;;;5099733;28;20108;-79
2023/09/02 09:59:55;;;;;;;21.42;7.60;;;17.00;99.90;;;;;;5100726;28;21756;-79
2023/09/02 10:02:21;;;;;;;15.15;7.38;;;17.10;99.90;;;;;;5082331;28;20551;-79
2023/09/02 10:05:05;;;;;;;15.48;6.80;;;17.10;99.90;;;;;;5099740;28;20050;-79
2023/09/02 10:07:32;;;;;;;16.95;7.65;;;17.20;99.90;;;;;;5099126;28;20039;-79
2023/09/02 10:10:00;;;;;;;16.98;7.68;;;17.20;99.90;;;;;;5098704;28;20504;-79
2023/09/02 10:12:33;;;;;;;17.50;7.43;;;17.30;99.90;;;;;;5098275;27;20039;-78
2023/09/02 10:14:59;;;;;;;19.25;8.35;;;17.20;99.90;;;;;;5101278;27;20046;-77
2023/09/02 10:17:25;;;;;;;17.23;7.22;;;17.20;99.90;;;;;;5100483;28;20043;-75
2023/09/02 10:19:51;;;;;;;15.32;7.85;;;17.20;99.90;;;;;;5097467;28;20082;-76
2023/09/02 10:22:19;;;;;;;15.48;6.72;;;17.20;99.90;;;;;;5101583;28;20155;-76
2023/09/02 10:24:57;;;;;;;15.90;7.35;;;17.20;99.90;;;;;;5099946;27;20130;-77
2023/09/02 10:27:23;;;;;;;15.23;6.68;;;17.20;99.90;;;;;;5101230;27;20071;-79
2023/09/02 10:29:56;;;;;;;16.02;6.50;;;17.20;99.90;;;;;;5083657;28;20346;-77
2023/09/02 10:32:26;;;;;;;12.77;5.72;;;17.20;99.90;;;;;;5084150;28;20134;-77
2023/09/02 10:34:55;;;;;;;13.38;6.00;;;17.20;99.90;;;;;;5100329;28;20269;-76
2023/09/02 10:37:24;;;;;;;11.27;5.30;;;17.20;99.90;;;;;;5103834;28;20032;-77
2023/09/02 10:40:03;;;;;;;11.68;5.80;;;17.20;99.90;;;;;;5087082;28;20053;-77
2023/09/02 10:42:29;;;;;;;11.52;6.00;;;17.30;99.90;;;;;;5104774;28;20062;-77
2023/09/02 10:44:56;;;;;;;12.68;6.25;;;17.20;99.90;;;;;;5101736;28;20488;-77
2023/09/02 10:47:22;;;;;;;11.35;5.30;;;17.20;99.90;;;;;;5104449;28;20362;-77
2023/09/02 10:49:48;;;;;;;16.08;6.35;;;17.20;99.90;;;;;;5104227;28;20036;-76
2023/09/02 10:52:16;;;;;;;10.18;5.63;;;17.20;99.90;;;;;;5102780;28;20320;-77
2023/09/02 10:55:10;;;;;;;15.48;5.45;;;17.20;99.90;;;;;;5102482;28;20405;-77
2023/09/02 10:57:49;;;;;;;14.00;5.60;;;17.20;99.90;;;;;;5117374;27;20039;-77
2023/09/02 11:00:19;;;;;;;17.45;6.93;;;17.30;99.90;;;;;;5098026;28;20515;-77
2023/09/02 11:02:46;;;;;;;16.17;6.82;;;17.30;99.90;;;;;;5102832;28;20036;-77
2023/09/02 11:05:12;;;;;;;12.75;6.47;;;17.30;99.90;;;;;;5095759;28;20032;-77
2023/09/02 11:07:40;;;;;;;13.88;6.53;;;17.30;99.90;;;;;;5105212;28;20047;-77
2023/09/02 11:10:07;;;;;;;11.70;6.43;;;17.40;99.90;;;;;;5098529;27;20028;-77
2023/09/02 11:12:35;;;;;;;14.45;6.05;;;17.40;99.90;;;;;;5102542;28;20413;-77
2023/09/02 11:15:07;;;;;;;11.90;5.65;;;17.50;99.90;;;;;;5103568;28;20072;-77
2023/09/02 11:17:34;;;;;;;15.60;6.63;;;17.50;99.90;;;;;;5100468;28;20031;-77
2023/09/02 11:20:01;;;;;;;13.25;6.82;;;17.50;99.90;;;;;;5081158;28;20497;-77
2023/09/02 11:23:02;;;;;;;13.32;6.22;;;17.50;99.90;;;;;;5100358;28;20054;-77
2023/09/02 11:25:36;;;;;;;12.43;4.97;;;17.50;99.90;;;;;;5102253;28;20247;-77
2023/09/02 11:28:05;;;;;;;6.05;3.10;;;17.50;99.90;;;;;;5102901;28;20496;-77
2023/09/02 11:30:32;;;;;;;9.55;3.60;;;17.60;99.90;;;;;;5080821;28;20154;-77
2023/09/02 11:32:58;;;;;;;10.10;3.50;;;17.60;99.90;;;;;;5083572;28;20064;-76
2023/09/02 11:35:32;;;;;;;6.88;3.42;;;17.60;99.90;;;;;;5100644;28;20046;-77
2023/09/02 11:37:59;;;;;;;6.05;3.28;;;17.60;99.90;;;;;;5099876;28;20114;-76
2023/09/02 11:40:26;;;;;;;8.80;3.38;;;17.60;99.90;;;;;;5081699;28;20044;-76
2023/09/02 11:42:59;;;;;;;6.53;3.70;;;17.60;99.90;;;;;;5100867;28;20126;-76
2023/09/02 11:45:27;;;;;;;8.60;4.32;;;17.60;99.90;;;;;;5102501;28;20024;-78
2023/09/02 11:47:53;;;;;;;8.52;4.53;;;17.70;99.90;;;;;;5100341;27;20046;-77
2023/09/02 11:50:20;;;;;;;8.20;4.10;;;17.70;99.90;;;;;;5096068;28;20027;-77
2023/09/02 11:52:48;;;;;;;8.43;4.55;;;17.80;99.90;;;;;;5101782;28;20047;-76
2023/09/02 11:55:16;;;;;;;11.60;4.93;;;17.80;99.90;;;;;;5062647;28;20104;-76
2023/09/02 11:57:42;;;;;;;9.18;5.13;;;17.80;99.90;;;;;;5096718;27;20092;-76
2023/09/02 12:00:13;;;;;;;8.30;4.70;;;17.80;99.90;;;;;;5091678;28;20151;-76
2023/09/02 12:02:38;;;;;;;10.27;5.15;;;17.90;99.90;;;;;;5061566;27;20065;-76
2023/09/02 12:05:04;;;;;;;11.85;4.75;;;17.90;99.90;;;;;;5041773;28;20378;-76
2023/09/02 12:07:32;;;;;;;8.55;4.57;;;18.00;99.90;;;;;;5090743;28;20485;-76
2023/09/02 12:10:03;;;;;;;10.63;5.53;;;18.10;99.90;;;;;;5100807;28;20032;-75
2023/09/02 12:12:29;;;;;;;11.35;4.18;;;18.10;99.90;;;;;;5082691;28;20598;-76
2023/09/02 12:14:57;;;;;;;9.20;5.35;;;18.10;99.90;;;;;;5076429;28;20054;-75
2023/09/02 12:17:22;;;;;;;9.85;5.47;;;18.10;99.90;;;;;;5065507;28;20043;-75
2023/09/02 12:19:48;;;;;;;11.70;5.32;;;18.20;99.90;;;;;;5097493;28;20519;-75
2023/09/02 12:22:14;;;;;;;9.95;5.50;;;18.20;99.90;;;;;;5098512;28;20075;-76
2023/09/02 12:24:40;;;;;;;11.02;4.97;;;18.10;99.90;;;;;;5100336;28;20042;-75
2023/09/02 12:27:05;;;;;;;9.00;5.10;;;18.20;99.90;;;;;;5102323;28;20040;-75
2023/09/02 12:29:31;;;;;;;7.65;4.55;;;18.10;99.90;;;;;;5090558;28;20665;-76
2023/09/02 12:31:58;;;;;;;12.25;5.10;;;18.20;99.90;;;;;;5107370;28;20044;-76
2023/09/02 12:34:25;;;;;;;9.82;4.50;;;18.20;99.90;;;;;;5107265;27;20066;-75
2023/09/02 12:36:51;;;;;;;11.55;5.68;;;18.20;99.90;;;;;;5103413;28;20028;-75
2023/09/02 12:39:24;;;;;;;10.00;5.43;;;18.20;99.90;;;;;;5109212;27;20094;-76
2023/09/02 12:41:50;;;;;;;9.48;4.88;;;18.30;99.90;;;;;;5107410;28;20031;-75
2023/09/02 12:44:19;;;;;;;11.45;4.95;;;18.30;99.90;;;;;;5108388;27;20827;-75